sensor_id;sensor_type;location;lat;lon;timestamp;P1;durP1;ratioP1;P2;durP2;ratioP2
7965;SDS011;4028;43.272;26.932;2022-09-09T00:04:29;6.13;;;3.33;;
7965;SDS011;4028;43.272;26.932;2022-09-09T00:12:36;6.93;;;4.20;;
7965;SDS011;4028;43.272;26.932;2022-09-09T00:15:37;5.20;;;3.67;;
7965;SDS011;4028;43.272;26.932;2022-09-09T00:18:12;5.77;;;3.77;;
7965;SDS011;4028;43.272;26.932;2022-09-09T00:21:02;5.53;;;3.50;;
7965;SDS011;4028;43.272;26.932;2022-09-09T00:23:37;4.53;;;3.50;;
7965;SDS011;4028;43.272;26.932;2022-09-09T00:31:37;5.87;;;3.87;;
7965;SDS011;4028;43.272;26.932;2022-09-09T00:34:13;4.33;;;3.60;;
7965;SDS011;4028;43.272;26.932;2022-09-09T00:36:42;5.13;;;3.73;;
7965;SDS011;4028;43.272;26.932;2022-09-09T00:39:13;5.33;;;3.80;;
7965;SDS011;4028;43.272;26.932;2022-09-09T00:42:12;6.37;;;3.60;;
7965;SDS011;4028;43.272;26.932;2022-09-09T00:47:44;4.77;;;3.30;;
7965;SDS011;4028;43.272;26.932;2022-09-09T00:58:13;5.70;;;3.63;;
7965;SDS011;4028;43.272;26.932;2022-09-09T01:00:43;3.53;;;3.13;;
7965;SDS011;4028;43.272;26.932;2022-09-09T01:06:02;4.97;;;3.30;;
7965;SDS011;4028;43.272;26.932;2022-09-09T01:09:07;3.63;;;3.13;;
7965;SDS011;4028;43.272;26.932;2022-09-09T01:17:03;5.27;;;3.97;;
7965;SDS011;4028;43.272;26.932;2022-09-09T01:25:01;7.33;;;6.07;;
7965;SDS011;4028;43.272;26.932;2022-09-09T01:27:33;8.90;;;6.07;;
7965;SDS011;4028;43.272;26.932;2022-09-09T01:30:01;6.00;;;5.17;;
7965;SDS011;4028;43.272;26.932;2022-09-09T01:35:05;9.87;;;6.00;;
7965;SDS011;4028;43.272;26.932;2022-09-09T01:37:36;5.70;;;4.70;;
7965;SDS011;4028;43.272;26.932;2022-09-09T01:40:02;6.63;;;4.87;;
7965;SDS011;4028;43.272;26.932;2022-09-09T01:42:28;4.50;;;3.90;;
7965;SDS011;4028;43.272;26.932;2022-09-09T01:44:53;4.33;;;3.77;;
7965;SDS011;4028;43.272;26.932;2022-09-09T01:47:20;6.87;;;3.50;;
7965;SDS011;4028;43.272;26.932;2022-09-09T01:49:45;3.67;;;3.30;;
7965;SDS011;4028;43.272;26.932;2022-09-09T01:52:11;4.20;;;3.03;;
7965;SDS011;4028;43.272;26.932;2022-09-09T01:54:36;4.03;;;3.07;;
7965;SDS011;4028;43.272;26.932;2022-09-09T01:57:11;4.73;;;3.50;;
7965;SDS011;4028;43.272;26.932;2022-09-09T01:59:51;3.33;;;2.93;;
7965;SDS011;4028;43.272;26.932;2022-09-09T02:05:28;4.70;;;3.30;;
7965;SDS011;4028;43.272;26.932;2022-09-09T02:08:08;3.07;;;2.83;;
7965;SDS011;4028;43.272;26.932;2022-09-09T02:13:29;4.77;;;3.00;;
7965;SDS011;4028;43.272;26.932;2022-09-09T02:16:00;4.13;;;2.97;;
7965;SDS011;4028;43.272;26.932;2022-09-09T02:18:32;4.30;;;3.30;;
7965;SDS011;4028;43.272;26.932;2022-09-09T02:21:04;6.20;;;3.20;;
7965;SDS011;4028;43.272;26.932;2022-09-09T02:23:31;3.60;;;3.30;;
7965;SDS011;4028;43.272;26.932;2022-09-09T02:25:59;4.80;;;2.90;;
7965;SDS011;4028;43.272;26.932;2022-09-09T02:28:27;3.20;;;2.77;;
7965;SDS011;4028;43.272;26.932;2022-09-09T02:30:56;4.13;;;2.80;;
7965;SDS011;4028;43.272;26.932;2022-09-09T02:33:24;3.93;;;3.07;;
7965;SDS011;4028;43.272;26.932;2022-09-09T02:35:52;4.40;;;3.23;;
7965;SDS011;4028;43.272;26.932;2022-09-09T02:38:21;3.17;;;2.87;;
7965;SDS011;4028;43.272;26.932;2022-09-09T02:40:52;3.53;;;2.90;;
7965;SDS011;4028;43.272;26.932;2022-09-09T02:43:18;4.33;;;3.20;;
7965;SDS011;4028;43.272;26.932;2022-09-09T02:48:55;3.37;;;2.83;;
7965;SDS011;4028;43.272;26.932;2022-09-09T02:54:26;4.17;;;3.43;;
7965;SDS011;4028;43.272;26.932;2022-09-09T02:56:55;3.43;;;3.13;;
7965;SDS011;4028;43.272;26.932;2022-09-09T02:59:27;6.60;;;3.00;;
7965;SDS011;4028;43.272;26.932;2022-09-09T03:01:52;4.80;;;3.17;;
7965;SDS011;4028;43.272;26.932;2022-09-09T03:04:18;7.17;;;3.57;;
7965;SDS011;4028;43.272;26.932;2022-09-09T03:06:44;3.40;;;3.10;;
7965;SDS011;4028;43.272;26.932;2022-09-09T03:09:09;5.70;;;3.20;;
7965;SDS011;4028;43.272;26.932;2022-09-09T03:11:35;5.30;;;3.27;;
7965;SDS011;4028;43.272;26.932;2022-09-09T03:14:02;5.37;;;3.47;;
7965;SDS011;4028;43.272;26.932;2022-09-09T03:16:27;3.93;;;3.10;;
7965;SDS011;4028;43.272;26.932;2022-09-09T03:18:53;6.37;;;3.10;;
7965;SDS011;4028;43.272;26.932;2022-09-09T03:21:18;3.37;;;3.03;;
7965;SDS011;4028;43.272;26.932;2022-09-09T03:23:43;3.50;;;2.73;;
7965;SDS011;4028;43.272;26.932;2022-09-09T03:26:10;9.97;;;3.10;;
7965;SDS011;4028;43.272;26.932;2022-09-09T03:28:35;4.77;;;3.10;;
7965;SDS011;4028;43.272;26.932;2022-09-09T03:31:04;3.57;;;2.80;;
7965;SDS011;4028;43.272;26.932;2022-09-09T03:33:31;5.60;;;3.40;;
7965;SDS011;4028;43.272;26.932;2022-09-09T03:35:57;5.20;;;2.80;;
7965;SDS011;4028;43.272;26.932;2022-09-09T03:38:25;4.00;;;2.83;;
7965;SDS011;4028;43.272;26.932;2022-09-09T03:40:52;3.67;;;2.97;;
7965;SDS011;4028;43.272;26.932;2022-09-09T03:43:23;5.10;;;3.10;;
7965;SDS011;4028;43.272;26.932;2022-09-09T03:45:50;5.07;;;3.10;;
7965;SDS011;4028;43.272;26.932;2022-09-09T03:48:16;5.57;;;3.07;;
7965;SDS011;4028;43.272;26.932;2022-09-09T03:50:49;5.20;;;3.13;;
7965;SDS011;4028;43.272;26.932;2022-09-09T03:53:17;6.80;;;3.37;;
7965;SDS011;4028;43.272;26.932;2022-09-09T03:55:48;10.77;;;4.27;;
7965;SDS011;4028;43.272;26.932;2022-09-09T03:58:17;5.63;;;3.87;;
7965;SDS011;4028;43.272;26.932;2022-09-09T04:00:44;5.80;;;3.40;;
7965;SDS011;4028;43.272;26.932;2022-09-09T04:03:22;5.77;;;3.53;;
7965;SDS011;4028;43.272;26.932;2022-09-09T04:05:49;6.33;;;3.33;;
7965;SDS011;4028;43.272;26.932;2022-09-09T04:08:19;6.67;;;3.50;;
7965;SDS011;4028;43.272;26.932;2022-09-09T04:10:46;7.27;;;3.90;;
7965;SDS011;4028;43.272;26.932;2022-09-09T04:13:15;7.23;;;4.10;;
7965;SDS011;4028;43.272;26.932;2022-09-09T04:15:43;9.40;;;3.90;;
7965;SDS011;4028;43.272;26.932;2022-09-09T04:18:10;7.47;;;4.07;;
7965;SDS011;4028;43.272;26.932;2022-09-09T04:20:36;7.60;;;4.50;;
7965;SDS011;4028;43.272;26.932;2022-09-09T04:23:02;6.37;;;4.47;;
7965;SDS011;4028;43.272;26.932;2022-09-09T04:25:28;6.30;;;4.43;;
7965;SDS011;4028;43.272;26.932;2022-09-09T04:27:57;7.77;;;4.37;;
7965;SDS011;4028;43.272;26.932;2022-09-09T04:30:23;5.90;;;4.40;;
7965;SDS011;4028;43.272;26.932;2022-09-09T04:32:49;5.93;;;4.20;;
7965;SDS011;4028;43.272;26.932;2022-09-09T04:35:15;10.83;;;4.30;;
7965;SDS011;4028;43.272;26.932;2022-09-09T04:37:40;10.70;;;4.77;;
7965;SDS011;4028;43.272;26.932;2022-09-09T04:40:06;7.60;;;4.17;;
7965;SDS011;4028;43.272;26.932;2022-09-09T04:42:37;10.30;;;4.90;;
7965;SDS011;4028;43.272;26.932;2022-09-09T04:45:04;8.13;;;4.30;;
7965;SDS011;4028;43.272;26.932;2022-09-09T04:47:31;11.70;;;4.67;;
7965;SDS011;4028;43.272;26.932;2022-09-09T04:49:56;9.57;;;4.27;;
7965;SDS011;4028;43.272;26.932;2022-09-09T04:52:22;11.63;;;5.03;;
7965;SDS011;4028;43.272;26.932;2022-09-09T04:54:47;7.77;;;4.40;;
7965;SDS011;4028;43.272;26.932;2022-09-09T04:57:13;10.10;;;4.47;;
7965;SDS011;4028;43.272;26.932;2022-09-09T04:59:39;7.13;;;4.13;;
7965;SDS011;4028;43.272;26.932;2022-09-09T05:02:04;4.43;;;3.30;;
7965;SDS011;4028;43.272;26.932;2022-09-09T05:04:30;7.20;;;3.70;;
7965;SDS011;4028;43.272;26.932;2022-09-09T05:06:56;10.80;;;4.30;;
7965;SDS011;4028;43.272;26.932;2022-09-09T05:09:22;10.53;;;4.20;;
7965;SDS011;4028;43.272;26.932;2022-09-09T05:11:47;7.23;;;4.13;;
7965;SDS011;4028;43.272;26.932;2022-09-09T05:14:13;10.93;;;4.13;;
7965;SDS011;4028;43.272;26.932;2022-09-09T05:16:40;11.23;;;4.40;;
7965;SDS011;4028;43.272;26.932;2022-09-09T05:19:05;7.30;;;4.27;;
7965;SDS011;4028;43.272;26.932;2022-09-09T05:21:33;6.33;;;4.23;;
7965;SDS011;4028;43.272;26.932;2022-09-09T05:23:59;6.83;;;3.90;;
7965;SDS011;4028;43.272;26.932;2022-09-09T05:26:25;6.40;;;4.17;;
7965;SDS011;4028;43.272;26.932;2022-09-09T05:28:51;5.77;;;3.80;;
7965;SDS011;4028;43.272;26.932;2022-09-09T05:31:17;7.90;;;3.53;;
7965;SDS011;4028;43.272;26.932;2022-09-09T05:33:43;7.20;;;3.47;;
7965;SDS011;4028;43.272;26.932;2022-09-09T05:36:14;7.90;;;3.13;;
7965;SDS011;4028;43.272;26.932;2022-09-09T05:38:46;6.10;;;3.23;;
7965;SDS011;4028;43.272;26.932;2022-09-09T05:41:12;4.10;;;3.00;;
7965;SDS011;4028;43.272;26.932;2022-09-09T05:43:40;4.63;;;3.00;;
7965;SDS011;4028;43.272;26.932;2022-09-09T05:46:10;4.40;;;3.07;;
7965;SDS011;4028;43.272;26.932;2022-09-09T05:48:37;3.80;;;3.40;;
7965;SDS011;4028;43.272;26.932;2022-09-09T05:51:05;6.97;;;2.97;;
7965;SDS011;4028;43.272;26.932;2022-09-09T05:53:32;3.57;;;3.23;;
7965;SDS011;4028;43.272;26.932;2022-09-09T05:56:02;4.20;;;3.43;;
7965;SDS011;4028;43.272;26.932;2022-09-09T05:58:31;5.45;;;4.00;;
7965;SDS011;4028;43.272;26.932;2022-09-09T06:01:04;4.75;;;3.92;;
7965;SDS011;4028;43.272;26.932;2022-09-09T06:03:35;5.47;;;3.63;;
7965;SDS011;4028;43.272;26.932;2022-09-09T06:06:02;3.28;;;2.97;;
7965;SDS011;4028;43.272;26.932;2022-09-09T06:08:31;7.13;;;3.30;;
7965;SDS011;4028;43.272;26.932;2022-09-09T06:11:11;3.60;;;2.67;;
7965;SDS011;4028;43.272;26.932;2022-09-09T06:13:37;4.38;;;3.00;;
7965;SDS011;4028;43.272;26.932;2022-09-09T06:16:04;5.38;;;3.42;;
7965;SDS011;4028;43.272;26.932;2022-09-09T06:18:30;5.05;;;2.80;;
7965;SDS011;4028;43.272;26.932;2022-09-09T06:20:57;7.80;;;3.08;;
7965;SDS011;4028;43.272;26.932;2022-09-09T06:23:24;6.10;;;2.85;;
7965;SDS011;4028;43.272;26.932;2022-09-09T06:25:50;5.40;;;3.17;;
7965;SDS011;4028;43.272;26.932;2022-09-09T06:28:16;6.45;;;3.30;;
7965;SDS011;4028;43.272;26.932;2022-09-09T06:30:42;7.03;;;3.10;;
7965;SDS011;4028;43.272;26.932;2022-09-09T06:33:09;7.38;;;3.53;;
7965;SDS011;4028;43.272;26.932;2022-09-09T06:35:35;8.90;;;3.22;;
7965;SDS011;4028;43.272;26.932;2022-09-09T06:38:00;8.15;;;3.15;;
7965;SDS011;4028;43.272;26.932;2022-09-09T06:40:26;7.55;;;3.08;;
7965;SDS011;4028;43.272;26.932;2022-09-09T06:42:51;7.72;;;2.95;;
7965;SDS011;4028;43.272;26.932;2022-09-09T06:45:17;6.75;;;3.15;;
7965;SDS011;4028;43.272;26.932;2022-09-09T06:47:43;3.63;;;2.88;;
7965;SDS011;4028;43.272;26.932;2022-09-09T06:50:08;2.90;;;2.42;;
7965;SDS011;4028;43.272;26.932;2022-09-09T06:52:35;9.20;;;2.97;;
7965;SDS011;4028;43.272;26.932;2022-09-09T06:55:02;2.88;;;2.53;;
7965;SDS011;4028;43.272;26.932;2022-09-09T06:57:28;4.55;;;2.75;;
7965;SDS011;4028;43.272;26.932;2022-09-09T06:59:54;2.90;;;2.70;;
7965;SDS011;4028;43.272;26.932;2022-09-09T07:02:19;2.53;;;2.33;;
7965;SDS011;4028;43.272;26.932;2022-09-09T07:04:46;4.93;;;2.35;;
7965;SDS011;4028;43.272;26.932;2022-09-09T07:07:11;2.80;;;2.40;;
7965;SDS011;4028;43.272;26.932;2022-09-09T07:09:40;5.63;;;2.58;;
7965;SDS011;4028;43.272;26.932;2022-09-09T07:12:05;2.55;;;2.30;;
7965;SDS011;4028;43.272;26.932;2022-09-09T07:14:31;3.00;;;2.70;;
7965;SDS011;4028;43.272;26.932;2022-09-09T07:16:58;3.35;;;2.63;;
7965;SDS011;4028;43.272;26.932;2022-09-09T07:19:25;4.57;;;2.45;;
7965;SDS011;4028;43.272;26.932;2022-09-09T07:21:50;3.00;;;2.38;;
7965;SDS011;4028;43.272;26.932;2022-09-09T07:24:16;3.75;;;2.75;;
7965;SDS011;4028;43.272;26.932;2022-09-09T07:26:41;2.40;;;2.20;;
7965;SDS011;4028;43.272;26.932;2022-09-09T07:29:07;2.83;;;2.45;;
7965;SDS011;4028;43.272;26.932;2022-09-09T07:31:34;3.35;;;2.50;;
7965;SDS011;4028;43.272;26.932;2022-09-09T07:34:02;3.72;;;2.50;;
7965;SDS011;4028;43.272;26.932;2022-09-09T07:36:29;4.57;;;2.50;;
7965;SDS011;4028;43.272;26.932;2022-09-09T07:38:57;2.65;;;2.38;;
7965;SDS011;4028;43.272;26.932;2022-09-09T07:41:28;3.22;;;2.10;;
7965;SDS011;4028;43.272;26.932;2022-09-09T07:43:57;3.55;;;2.40;;
7965;SDS011;4028;43.272;26.932;2022-09-09T07:46:24;4.43;;;2.50;;
7965;SDS011;4028;43.272;26.932;2022-09-09T07:48:54;4.32;;;2.17;;
7965;SDS011;4028;43.272;26.932;2022-09-09T07:51:25;2.38;;;2.17;;
7965;SDS011;4028;43.272;26.932;2022-09-09T07:53:54;5.05;;;2.67;;
7965;SDS011;4028;43.272;26.932;2022-09-09T07:56:24;5.10;;;2.70;;
7965;SDS011;4028;43.272;26.932;2022-09-09T07:58:52;5.40;;;2.63;;
7965;SDS011;4028;43.272;26.932;2022-09-09T08:01:23;3.83;;;2.33;;
7965;SDS011;4028;43.272;26.932;2022-09-09T08:03:59;4.93;;;2.70;;
7965;SDS011;4028;43.272;26.932;2022-09-09T08:06:28;3.05;;;2.22;;
7965;SDS011;4028;43.272;26.932;2022-09-09T08:08:55;6.10;;;2.80;;
7965;SDS011;4028;43.272;26.932;2022-09-09T08:11:22;2.40;;;2.20;;
7965;SDS011;4028;43.272;26.932;2022-09-09T08:13:49;5.43;;;2.63;;
7965;SDS011;4028;43.272;26.932;2022-09-09T08:16:20;7.85;;;2.70;;
7965;SDS011;4028;43.272;26.932;2022-09-09T08:18:48;7.50;;;2.80;;
7965;SDS011;4028;43.272;26.932;2022-09-09T08:21:15;5.95;;;3.00;;
7965;SDS011;4028;43.272;26.932;2022-09-09T08:23:43;3.03;;;2.72;;
7965;SDS011;4028;43.272;26.932;2022-09-09T08:26:14;5.63;;;2.65;;
7965;SDS011;4028;43.272;26.932;2022-09-09T08:28:42;7.05;;;2.80;;
7965;SDS011;4028;43.272;26.932;2022-09-09T08:31:13;6.15;;;2.80;;
7965;SDS011;4028;43.272;26.932;2022-09-09T08:33:40;5.63;;;2.90;;
7965;SDS011;4028;43.272;26.932;2022-09-09T08:36:09;5.75;;;2.80;;
7965;SDS011;4028;43.272;26.932;2022-09-09T08:38:36;3.15;;;2.60;;
7965;SDS011;4028;43.272;26.932;2022-09-09T08:43:58;4.15;;;2.70;;
7965;SDS011;4028;43.272;26.932;2022-09-09T08:52:22;4.80;;;2.72;;
7965;SDS011;4028;43.272;26.932;2022-09-09T08:58:02;3.45;;;2.92;;
7965;SDS011;4028;43.272;26.932;2022-09-09T09:00:45;4.53;;;2.47;;
7965;SDS011;4028;43.272;26.932;2022-09-09T09:03:37;6.20;;;2.70;;
7965;SDS011;4028;43.272;26.932;2022-09-09T09:11:40;3.63;;;2.60;;
7965;SDS011;4028;43.272;26.932;2022-09-09T09:16:49;3.13;;;2.70;;
7965;SDS011;4028;43.272;26.932;2022-09-09T09:19:19;3.75;;;2.70;;
7965;SDS011;4028;43.272;26.932;2022-09-09T09:29:59;4.18;;;2.72;;
7965;SDS011;4028;43.272;26.932;2022-09-09T09:32:26;4.85;;;2.65;;
7965;SDS011;4028;43.272;26.932;2022-09-09T09:34:56;4.30;;;2.33;;
7965;SDS011;4028;43.272;26.932;2022-09-09T09:37:31;4.80;;;2.58;;
7965;SDS011;4028;43.272;26.932;2022-09-09T09:40:12;4.35;;;3.05;;
7965;SDS011;4028;43.272;26.932;2022-09-09T09:42:53;4.20;;;2.58;;
7965;SDS011;4028;43.272;26.932;2022-09-09T09:45:41;7.05;;;2.83;;
7965;SDS011;4028;43.272;26.932;2022-09-09T09:48:11;3.03;;;2.80;;
7965;SDS011;4028;43.272;26.932;2022-09-09T09:53:31;2.75;;;2.55;;
7965;SDS011;4028;43.272;26.932;2022-09-09T09:56:02;4.45;;;2.72;;
7965;SDS011;4028;43.272;26.932;2022-09-09T09:58:52;4.18;;;2.90;;
7965;SDS011;4028;43.272;26.932;2022-09-09T10:01:29;2.90;;;2.63;;
7965;SDS011;4028;43.272;26.932;2022-09-09T10:04:17;5.88;;;2.70;;
7965;SDS011;4028;43.272;26.932;2022-09-09T10:06:45;5.35;;;2.75;;
7965;SDS011;4028;43.272;26.932;2022-09-09T10:09:28;6.15;;;3.10;;
7965;SDS011;4028;43.272;26.932;2022-09-09T10:17:16;4.07;;;2.67;;
7965;SDS011;4028;43.272;26.932;2022-09-09T10:22:47;4.85;;;2.70;;
7965;SDS011;4028;43.272;26.932;2022-09-09T10:25:20;4.20;;;2.92;;
7965;SDS011;4028;43.272;26.932;2022-09-09T10:30:33;3.42;;;3.13;;
7965;SDS011;4028;43.272;26.932;2022-09-09T10:36:16;5.43;;;3.00;;
7965;SDS011;4028;43.272;26.932;2022-09-09T10:38:46;6.82;;;3.33;;
7965;SDS011;4028;43.272;26.932;2022-09-09T10:55:26;4.80;;;2.83;;
7965;SDS011;4028;43.272;26.932;2022-09-09T11:01:36;3.38;;;2.97;;
7965;SDS011;4028;43.272;26.932;2022-09-09T11:04:17;5.30;;;3.00;;
7965;SDS011;4028;43.272;26.932;2022-09-09T11:06:48;9.65;;;3.28;;
7965;SDS011;4028;43.272;26.932;2022-09-09T11:09:21;5.45;;;2.78;;
7965;SDS011;4028;43.272;26.932;2022-09-09T11:11:53;5.45;;;3.00;;
7965;SDS011;4028;43.272;26.932;2022-09-09T11:17:00;6.07;;;3.00;;
7965;SDS011;4028;43.272;26.932;2022-09-09T11:22:19;3.00;;;2.70;;
7965;SDS011;4028;43.272;26.932;2022-09-09T11:27:31;4.13;;;2.88;;
7965;SDS011;4028;43.272;26.932;2022-09-09T11:41:12;3.17;;;2.85;;
7965;SDS011;4028;43.272;26.932;2022-09-09T11:46:06;5.20;;;3.15;;
7965;SDS011;4028;43.272;26.932;2022-09-09T11:48:34;4.45;;;3.15;;
7965;SDS011;4028;43.272;26.932;2022-09-09T11:53:55;5.35;;;2.42;;
7965;SDS011;4028;43.272;26.932;2022-09-09T11:56:27;5.72;;;3.10;;
7965;SDS011;4028;43.272;26.932;2022-09-09T11:59:04;6.68;;;2.45;;
7965;SDS011;4028;43.272;26.932;2022-09-09T12:01:38;2.95;;;2.75;;
7965;SDS011;4028;43.272;26.932;2022-09-09T12:06:52;4.53;;;2.83;;
7965;SDS011;4028;43.272;26.932;2022-09-09T12:15:19;4.43;;;2.80;;
7965;SDS011;4028;43.272;26.932;2022-09-09T12:17:25;3.75;;;2.85;;
7965;SDS011;4028;43.272;26.932;2022-09-09T12:22:45;4.30;;;2.88;;
7965;SDS011;4028;43.272;26.932;2022-09-09T12:27:45;6.00;;;2.80;;
7965;SDS011;4028;43.272;26.932;2022-09-09T12:31:01;4.22;;;2.70;;
7965;SDS011;4028;43.272;26.932;2022-09-09T12:33:21;3.00;;;2.80;;
7965;SDS011;4028;43.272;26.932;2022-09-09T12:35:53;6.82;;;2.70;;
7965;SDS011;4028;43.272;26.932;2022-09-09T12:38:26;5.50;;;2.83;;
7965;SDS011;4028;43.272;26.932;2022-09-09T12:41:05;4.25;;;3.00;;
7965;SDS011;4028;43.272;26.932;2022-09-09T12:43:31;4.43;;;2.80;;
7965;SDS011;4028;43.272;26.932;2022-09-09T12:46:00;3.72;;;3.10;;
7965;SDS011;4028;43.272;26.932;2022-09-09T12:51:05;2.92;;;2.72;;
7965;SDS011;4028;43.272;26.932;2022-09-09T12:53:41;5.97;;;2.83;;
7965;SDS011;4028;43.272;26.932;2022-09-09T12:56:08;4.95;;;2.80;;
7965;SDS011;4028;43.272;26.932;2022-09-09T12:58:45;4.32;;;2.85;;
7965;SDS011;4028;43.272;26.932;2022-09-09T13:01:18;4.25;;;3.17;;
7965;SDS011;4028;43.272;26.932;2022-09-09T13:03:47;6.15;;;2.65;;
7965;SDS011;4028;43.272;26.932;2022-09-09T13:06:17;5.57;;;2.88;;
7965;SDS011;4028;43.272;26.932;2022-09-09T13:08:56;4.05;;;3.08;;
7965;SDS011;4028;43.272;26.932;2022-09-09T13:11:40;3.13;;;2.60;;
7965;SDS011;4028;43.272;26.932;2022-09-09T13:14:19;5.05;;;3.33;;
7965;SDS011;4028;43.272;26.932;2022-09-09T13:16:55;6.30;;;2.70;;
7965;SDS011;4028;43.272;26.932;2022-09-09T13:19:23;4.32;;;2.95;;
7965;SDS011;4028;43.272;26.932;2022-09-09T13:21:54;4.90;;;3.13;;
7965;SDS011;4028;43.272;26.932;2022-09-09T13:24:33;3.47;;;2.90;;
7965;SDS011;4028;43.272;26.932;2022-09-09T13:27:04;3.35;;;3.05;;
7965;SDS011;4028;43.272;26.932;2022-09-09T13:29:51;4.53;;;2.97;;
7965;SDS011;4028;43.272;26.932;2022-09-09T13:32:20;3.05;;;2.70;;
7965;SDS011;4028;43.272;26.932;2022-09-09T13:39:56;5.07;;;3.10;;
7965;SDS011;4028;43.272;26.932;2022-09-09T13:42:23;4.07;;;3.00;;
7965;SDS011;4028;43.272;26.932;2022-09-09T13:44:51;6.05;;;3.45;;
7965;SDS011;4028;43.272;26.932;2022-09-09T13:47:17;6.28;;;3.22;;
7965;SDS011;4028;43.272;26.932;2022-09-09T13:49:45;3.63;;;3.00;;
7965;SDS011;4028;43.272;26.932;2022-09-09T13:54:38;6.63;;;3.80;;
7965;SDS011;4028;43.272;26.932;2022-09-09T13:57:05;4.38;;;3.28;;
7965;SDS011;4028;43.272;26.932;2022-09-09T13:59:40;5.35;;;3.58;;
7965;SDS011;4028;43.272;26.932;2022-09-09T14:02:06;4.85;;;3.53;;
7965;SDS011;4028;43.272;26.932;2022-09-09T14:04:32;5.18;;;3.40;;
7965;SDS011;4028;43.272;26.932;2022-09-09T14:07:00;5.80;;;3.47;;
7965;SDS011;4028;43.272;26.932;2022-09-09T14:09:26;5.75;;;3.65;;
7965;SDS011;4028;43.272;26.932;2022-09-09T14:11:51;3.50;;;2.85;;
7965;SDS011;4028;43.272;26.932;2022-09-09T14:14:17;7.03;;;3.00;;
7965;SDS011;4028;43.272;26.932;2022-09-09T14:16:42;6.30;;;3.33;;
7965;SDS011;4028;43.272;26.932;2022-09-09T14:19:08;3.88;;;3.17;;
7965;SDS011;4028;43.272;26.932;2022-09-09T14:21:34;4.53;;;3.55;;
7965;SDS011;4028;43.272;26.932;2022-09-09T14:24:00;5.28;;;3.25;;
7965;SDS011;4028;43.272;26.932;2022-09-09T14:26:25;4.15;;;3.45;;
7965;SDS011;4028;43.272;26.932;2022-09-09T14:28:51;3.05;;;2.83;;
7965;SDS011;4028;43.272;26.932;2022-09-09T14:31:17;5.38;;;3.70;;
7965;SDS011;4028;43.272;26.932;2022-09-09T14:33:43;5.05;;;3.10;;
7965;SDS011;4028;43.272;26.932;2022-09-09T14:36:09;7.72;;;3.25;;
7965;SDS011;4028;43.272;26.932;2022-09-09T14:38:36;3.83;;;3.45;;
7965;SDS011;4028;43.272;26.932;2022-09-09T14:41:06;6.03;;;3.45;;
7965;SDS011;4028;43.272;26.932;2022-09-09T14:43:34;5.50;;;3.00;;
7965;SDS011;4028;43.272;26.932;2022-09-09T14:46:10;6.00;;;3.70;;
7965;SDS011;4028;43.272;26.932;2022-09-09T14:48:36;5.80;;;3.67;;
7965;SDS011;4028;43.272;26.932;2022-09-09T14:51:08;3.33;;;2.95;;
7965;SDS011;4028;43.272;26.932;2022-09-09T14:53:36;3.88;;;3.20;;
7965;SDS011;4028;43.272;26.932;2022-09-09T14:56:03;3.30;;;3.00;;
7965;SDS011;4028;43.272;26.932;2022-09-09T14:58:33;6.40;;;3.38;;
7965;SDS011;4028;43.272;26.932;2022-09-09T15:01:03;3.80;;;2.85;;
7965;SDS011;4028;43.272;26.932;2022-09-09T15:03:36;4.18;;;2.97;;
7965;SDS011;4028;43.272;26.932;2022-09-09T15:06:06;3.85;;;3.42;;
7965;SDS011;4028;43.272;26.932;2022-09-09T15:08:33;4.93;;;3.85;;
7965;SDS011;4028;43.272;26.932;2022-09-09T15:11:00;4.05;;;3.05;;
7965;SDS011;4028;43.272;26.932;2022-09-09T15:13:26;4.55;;;3.15;;
7965;SDS011;4028;43.272;26.932;2022-09-09T15:15:52;10.02;;;3.33;;
7965;SDS011;4028;43.272;26.932;2022-09-09T15:18:19;5.68;;;2.78;;
7965;SDS011;4028;43.272;26.932;2022-09-09T15:20:45;6.53;;;3.20;;
7965;SDS011;4028;43.272;26.932;2022-09-09T15:23:11;3.85;;;2.42;;
7965;SDS011;4028;43.272;26.932;2022-09-09T15:25:37;7.95;;;2.75;;
7965;SDS011;4028;43.272;26.932;2022-09-09T15:28:02;3.60;;;2.40;;
7965;SDS011;4028;43.272;26.932;2022-09-09T15:30:28;4.63;;;2.15;;
7965;SDS011;4028;43.272;26.932;2022-09-09T15:32:54;5.68;;;2.22;;
7965;SDS011;4028;43.272;26.932;2022-09-09T15:35:19;4.30;;;2.28;;
7965;SDS011;4028;43.272;26.932;2022-09-09T15:37:45;2.40;;;2.03;;
7965;SDS011;4028;43.272;26.932;2022-09-09T15:40:11;3.25;;;2.30;;
7965;SDS011;4028;43.272;26.932;2022-09-09T15:42:36;3.20;;;2.13;;
7965;SDS011;4028;43.272;26.932;2022-09-09T15:45:02;2.53;;;2.13;;
7965;SDS011;4028;43.272;26.932;2022-09-09T15:47:30;3.50;;;2.53;;
7965;SDS011;4028;43.272;26.932;2022-09-09T15:49:55;2.65;;;2.17;;
7965;SDS011;4028;43.272;26.932;2022-09-09T15:52:21;8.88;;;2.40;;
7965;SDS011;4028;43.272;26.932;2022-09-09T15:54:46;2.53;;;2.00;;
7965;SDS011;4028;43.272;26.932;2022-09-09T15:57:14;4.65;;;2.40;;
7965;SDS011;4028;43.272;26.932;2022-09-09T15:59:39;3.35;;;2.50;;
7965;SDS011;4028;43.272;26.932;2022-09-09T16:02:05;3.33;;;2.20;;
7965;SDS011;4028;43.272;26.932;2022-09-09T16:04:31;2.65;;;2.13;;
7965;SDS011;4028;43.272;26.932;2022-09-09T16:07:00;2.88;;;2.08;;
7965;SDS011;4028;43.272;26.932;2022-09-09T16:09:28;3.42;;;2.20;;
7965;SDS011;4028;43.272;26.932;2022-09-09T16:11:58;5.63;;;2.15;;
7965;SDS011;4028;43.272;26.932;2022-09-09T16:14:25;4.30;;;2.20;;
7965;SDS011;4028;43.272;26.932;2022-09-09T16:16:51;2.72;;;2.20;;
7965;SDS011;4028;43.272;26.932;2022-09-09T16:19:17;2.35;;;1.80;;
7965;SDS011;4028;43.272;26.932;2022-09-09T16:21:47;2.55;;;2.33;;
7965;SDS011;4028;43.272;26.932;2022-09-09T16:24:14;3.15;;;2.20;;
7965;SDS011;4028;43.272;26.932;2022-09-09T16:26:43;4.50;;;2.50;;
7965;SDS011;4028;43.272;26.932;2022-09-09T16:29:10;3.17;;;2.30;;
7965;SDS011;4028;43.272;26.932;2022-09-09T16:31:37;4.53;;;2.60;;
7965;SDS011;4028;43.272;26.932;2022-09-09T16:34:05;7.38;;;2.38;;
7965;SDS011;4028;43.272;26.932;2022-09-09T16:36:31;3.75;;;2.30;;
7965;SDS011;4028;43.272;26.932;2022-09-09T16:39:03;2.55;;;2.30;;
7965;SDS011;4028;43.272;26.932;2022-09-09T16:41:30;3.58;;;2.40;;
7965;SDS011;4028;43.272;26.932;2022-09-09T16:43:57;3.28;;;2.38;;
7965;SDS011;4028;43.272;26.932;2022-09-09T16:46:27;3.67;;;2.40;;
7965;SDS011;4028;43.272;26.932;2022-09-09T16:48:55;4.68;;;2.50;;
7965;SDS011;4028;43.272;26.932;2022-09-09T16:51:24;2.83;;;2.47;;
7965;SDS011;4028;43.272;26.932;2022-09-09T16:53:54;3.38;;;2.30;;
7965;SDS011;4028;43.272;26.932;2022-09-09T16:56:21;5.47;;;2.45;;
7965;SDS011;4028;43.272;26.932;2022-09-09T16:58:53;4.15;;;2.50;;
7965;SDS011;4028;43.272;26.932;2022-09-09T17:01:21;3.20;;;2.75;;
7965;SDS011;4028;43.272;26.932;2022-09-09T17:04:09;4.53;;;3.25;;
7965;SDS011;4028;43.272;26.932;2022-09-09T17:06:36;8.13;;;3.90;;
7965;SDS011;4028;43.272;26.932;2022-09-09T17:09:04;4.53;;;2.83;;
7965;SDS011;4028;43.272;26.932;2022-09-09T17:11:31;6.35;;;3.75;;
7965;SDS011;4028;43.272;26.932;2022-09-09T17:13:57;8.00;;;3.20;;
7965;SDS011;4028;43.272;26.932;2022-09-09T17:16:24;7.45;;;4.97;;
7965;SDS011;4028;43.272;26.932;2022-09-09T17:18:52;8.05;;;4.03;;
7965;SDS011;4028;43.272;26.932;2022-09-09T17:21:20;5.53;;;2.97;;
7965;SDS011;4028;43.272;26.932;2022-09-09T17:23:48;2.88;;;2.05;;
7965;SDS011;4028;43.272;26.932;2022-09-09T17:26:16;2.42;;;2.10;;
7965;SDS011;4028;43.272;26.932;2022-09-09T17:28:44;2.53;;;2.30;;
7965;SDS011;4028;43.272;26.932;2022-09-09T17:31:14;4.10;;;2.53;;
7965;SDS011;4028;43.272;26.932;2022-09-09T17:33:42;2.72;;;2.40;;
7965;SDS011;4028;43.272;26.932;2022-09-09T17:36:16;5.05;;;2.58;;
7965;SDS011;4028;43.272;26.932;2022-09-09T17:38:44;2.33;;;2.13;;
7965;SDS011;4028;43.272;26.932;2022-09-09T17:41:14;8.18;;;2.60;;
7965;SDS011;4028;43.272;26.932;2022-09-09T17:43:42;2.78;;;2.20;;
7965;SDS011;4028;43.272;26.932;2022-09-09T17:46:08;5.07;;;2.17;;
7965;SDS011;4028;43.272;26.932;2022-09-09T17:48:38;3.00;;;2.28;;
7965;SDS011;4028;43.272;26.932;2022-09-09T17:51:05;2.80;;;2.60;;
7965;SDS011;4028;43.272;26.932;2022-09-09T17:53:36;3.47;;;2.22;;
7965;SDS011;4028;43.272;26.932;2022-09-09T17:56:07;2.53;;;2.13;;
7965;SDS011;4028;43.272;26.932;2022-09-09T17:58:33;3.80;;;2.30;;